createdAt,value
2022-09-20T00:01:13.286Z,1.90
2022-09-20T00:03:44.543Z,1.97
2022-09-20T00:06:13.694Z,2.20
2022-09-20T00:08:40.861Z,1.70
2022-09-20T00:11:13.161Z,1.90
2022-09-20T00:13:40.251Z,2.10
2022-09-20T00:16:08.510Z,2.20
2022-09-20T00:18:36.188Z,2.10
2022-09-20T00:21:04.044Z,2.23
2022-09-20T00:23:31.468Z,2.40
2022-09-20T00:25:59.617Z,2.20
2022-09-20T00:28:27.181Z,2.37
2022-09-20T00:30:54.884Z,2.40
2022-09-20T00:33:22.277Z,2.30
2022-09-20T00:35:49.413Z,2.30
2022-09-20T00:38:16.564Z,1.90
2022-09-20T00:40:45.349Z,1.97
2022-09-20T00:43:16.549Z,2.20
2022-09-20T00:45:44.939Z,1.93
2022-09-20T00:48:29.950Z,1.83
2022-09-20T00:51:02.838Z,2.27
2022-09-20T00:53:32.233Z,2.20
2022-09-20T00:56:04.989Z,1.80
2022-09-20T00:58:33.805Z,1.93
2022-09-20T01:01:01.054Z,1.97
2022-09-20T01:03:32.034Z,2.10
2022-09-20T01:06:00.356Z,3.33
2022-09-20T01:08:27.473Z,2.27
2022-09-20T01:10:54.529Z,2.03
2022-09-20T01:13:21.574Z,2.07
2022-09-20T01:15:49.559Z,2.10
2022-09-20T01:18:17.276Z,2.00
2022-09-20T01:20:46.438Z,2.30
2022-09-20T01:23:19.704Z,2.00
2022-09-20T01:25:46.742Z,2.00
2022-09-20T01:28:14.075Z,2.30
2022-09-20T01:30:44.326Z,2.00
2022-09-20T01:33:11.370Z,2.43
2022-09-20T01:35:39.132Z,2.40
2022-09-20T01:38:19.595Z,2.10
2022-09-20T01:40:49.503Z,2.10
2022-09-20T01:43:16.704Z,2.17
2022-09-20T01:45:47.223Z,2.43
2022-09-20T01:48:16.826Z,2.37
2022-09-20T01:50:43.905Z,2.30
2022-09-20T01:53:10.965Z,2.60
2022-09-20T01:55:38.014Z,2.40
2022-09-20T01:58:13.970Z,2.50
2022-09-20T02:00:59.859Z,2.60
2022-09-20T02:03:36.083Z,2.60
2022-09-20T02:06:12.802Z,2.40
2022-09-20T02:08:48.866Z,2.80
2022-09-20T02:11:17.608Z,2.70
2022-09-20T02:13:47.685Z,2.80
2022-09-20T02:16:29.768Z,2.83
2022-09-20T02:19:08.495Z,2.60
2022-09-20T02:21:43.356Z,2.90
2022-09-20T02:24:19.276Z,3.00
2022-09-20T02:26:56.399Z,3.20
2022-09-20T02:29:33.837Z,3.60
2022-09-20T02:32:01.005Z,2.90
2022-09-20T02:34:36.922Z,3.33
2022-09-20T02:37:22.333Z,3.40
2022-09-20T02:40:03.102Z,3.20
2022-09-20T02:42:44.950Z,3.13
2022-09-20T02:45:18.558Z,3.40
2022-09-20T02:47:45.987Z,3.70
2022-09-20T02:50:13.115Z,3.63
2022-09-20T02:52:40.167Z,4.70
2022-09-20T02:55:07.287Z,3.80
2022-09-20T02:57:43.722Z,4.00
2022-09-20T03:00:11.046Z,4.57
2022-09-20T03:02:51.539Z,3.90
2022-09-20T03:05:28.193Z,4.10
2022-09-20T03:08:14.065Z,3.70
2022-09-20T03:10:44.203Z,3.90
2022-09-20T03:13:16.771Z,3.90
2022-09-20T03:15:50.040Z,4.40
2022-09-20T03:18:19.477Z,4.30
2022-09-20T03:20:52.385Z,4.30
2022-09-20T03:23:38.202Z,4.27
2022-09-20T03:26:14.421Z,4.10
2022-09-20T03:29:07.755Z,4.10
2022-09-20T03:31:37.817Z,4.47
2022-09-20T03:34:23.307Z,4.47
2022-09-20T03:36:56.369Z,4.70
2022-09-20T03:39:40.824Z,5.10
2022-09-20T03:42:27.709Z,4.27
2022-09-20T03:45:07.121Z,4.87
2022-09-20T03:47:52.705Z,5.13
2022-09-20T03:50:24.295Z,5.63
2022-09-20T03:53:10.203Z,5.40
2022-09-20T03:55:56.111Z,5.77
2022-09-20T03:58:42.044Z,5.70
2022-09-20T04:01:28.026Z,6.03
2022-09-20T04:04:08.579Z,6.70
2022-09-20T04:06:41.533Z,6.90
2022-09-20T04:09:23.961Z,8.67
2022-09-20T04:12:06.303Z,8.37
2022-09-20T04:14:39.653Z,8.23
2022-09-20T04:17:16.511Z,8.43
2022-09-20T04:19:51.602Z,8.70
2022-09-20T04:22:20.522Z,9.67
2022-09-20T04:25:06.273Z,9.50
2022-09-20T04:27:37.295Z,9.80
2022-09-20T04:30:10.660Z,9.80
2022-09-20T04:32:44.817Z,9.20
2022-09-20T04:35:55.125Z,9.23
2022-09-20T04:38:22.598Z,9.50
2022-09-20T04:40:52.696Z,9.57
2022-09-20T04:43:52.271Z,10.60
2022-09-20T04:46:52.728Z,11.53
2022-09-20T04:49:40.245Z,12.23
2022-09-20T04:52:25.552Z,11.20
2022-09-20T04:55:01.447Z,12.53
2022-09-20T04:57:34.422Z,11.07
2022-09-20T05:00:14.769Z,10.20
2022-09-20T05:03:00.584Z,9.37
2022-09-20T05:05:42.977Z,8.53
2022-09-20T05:08:18.949Z,8.30
2022-09-20T05:10:56.239Z,9.87
2022-09-20T05:13:41.969Z,9.27
2022-09-20T05:16:19.150Z,9.37
2022-09-20T05:18:46.599Z,9.00
2022-09-20T05:21:16.628Z,8.20
2022-09-20T05:23:52.709Z,8.17
2022-09-20T05:26:25.893Z,7.93
2022-09-20T05:29:15.062Z,8.40
2022-09-20T05:31:42.143Z,7.67
2022-09-20T05:34:09.257Z,7.97
2022-09-20T05:36:43.880Z,9.17
2022-09-20T05:39:17.104Z,8.03
2022-09-20T05:41:54.565Z,8.07
2022-09-20T05:44:46.150Z,8.23
2022-09-20T05:47:13.239Z,6.27
2022-09-20T05:49:40.709Z,5.70
2022-09-20T05:52:26.264Z,5.13
2022-09-20T05:55:16.714Z,5.10
2022-09-20T05:58:00.601Z,4.63
2022-09-20T06:00:31.175Z,4.20
2022-09-20T06:03:19.145Z,4.83
2022-09-20T06:05:50.781Z,6.10
2022-09-20T06:08:24.270Z,6.67
2022-09-20T06:10:57.491Z,6.43
2022-09-20T06:13:24.528Z,6.87
2022-09-20T06:15:58.110Z,6.40
2022-09-20T06:18:28.869Z,6.30
2022-09-20T06:21:03.953Z,6.07
2022-09-20T06:23:32.062Z,5.27
2022-09-20T06:26:03.787Z,4.40
2022-09-20T06:28:34.219Z,4.57
2022-09-20T06:31:01.880Z,3.67
2022-09-20T06:33:29.380Z,3.23
2022-09-20T06:36:22.506Z,3.37
2022-09-20T06:39:27.144Z,2.60
2022-09-20T06:41:54.836Z,2.40
2022-09-20T06:44:21.925Z,2.50
2022-09-20T06:46:49.016Z,2.33
2022-09-20T06:49:16.101Z,2.67
2022-09-20T06:51:43.409Z,2.27
2022-09-20T06:54:17.209Z,2.57
2022-09-20T06:56:44.641Z,2.30
2022-09-20T06:59:12.840Z,2.50
2022-09-20T07:01:40.266Z,2.67
2022-09-20T07:04:07.556Z,2.45
2022-09-20T07:06:34.662Z,2.30
2022-09-20T07:09:01.752Z,2.47
2022-09-20T07:11:29.864Z,2.40
2022-09-20T07:13:58.271Z,2.28
2022-09-20T07:16:26.445Z,2.65
2022-09-20T07:18:53.726Z,2.33
2022-09-20T07:21:21.657Z,2.28
2022-09-20T07:23:50.005Z,1.98
2022-09-20T07:26:20.916Z,2.35
2022-09-20T07:28:48.697Z,2.10
2022-09-20T07:31:16.325Z,1.90
2022-09-20T07:33:43.512Z,2.20
2022-09-20T07:36:12.333Z,2.00
2022-09-20T07:38:40.384Z,2.20
2022-09-20T07:41:07.614Z,2.20
2022-09-20T07:43:35.047Z,2.10
2022-09-20T07:46:02.605Z,1.90
2022-09-20T07:48:31.502Z,2.15
2022-09-20T07:51:09.187Z,1.92
2022-09-20T07:53:36.637Z,1.88
2022-09-20T07:56:08.016Z,1.73
2022-09-20T07:58:36.009Z,2.03
2022-09-20T08:01:04.972Z,1.90
2022-09-20T08:03:33.092Z,1.90
2022-09-20T08:06:01.251Z,1.98
2022-09-20T08:08:31.659Z,1.90
2022-09-20T08:11:03.085Z,2.17
2022-09-20T08:16:17.618Z,1.70
2022-09-20T08:18:48.521Z,1.67
2022-09-20T08:21:15.738Z,1.80
2022-09-20T08:23:44.255Z,1.67
2022-09-20T08:26:12.765Z,2.13
2022-09-20T08:28:40.671Z,1.85
2022-09-20T08:31:09.050Z,1.95
2022-09-20T08:33:38.010Z,1.60
2022-09-20T08:36:07.848Z,1.67
2022-09-20T08:41:32.432Z,2.05
2022-09-20T08:44:01.140Z,1.95
2022-09-20T08:46:29.807Z,1.65
2022-09-20T08:48:57.897Z,1.95
2022-09-20T08:51:30.450Z,1.77
2022-09-20T08:53:58.601Z,2.08
2022-09-20T08:56:29.106Z,1.75
2022-09-20T08:59:00.271Z,1.63
2022-09-20T09:01:29.304Z,1.90
2022-09-20T09:04:03.291Z,2.00
2022-09-20T09:06:30.512Z,1.80
2022-09-20T09:08:59.052Z,1.70
2022-09-20T09:11:26.595Z,1.80
2022-09-20T09:14:01.888Z,1.97
2022-09-20T09:16:35.309Z,2.00
2022-09-20T09:19:22.417Z,2.00
2022-09-20T09:21:49.558Z,1.90
2022-09-20T09:24:20.594Z,1.70
2022-09-20T09:26:48.650Z,2.10
2022-09-20T09:29:17.609Z,1.70
2022-09-20T09:31:45.505Z,2.00
2022-09-20T09:34:32.037Z,1.90
2022-09-20T09:36:59.358Z,2.83
2022-09-20T09:39:28.594Z,1.80
2022-09-20T09:41:56.342Z,1.87
2022-09-20T09:44:24.952Z,1.93
2022-09-20T09:46:53.684Z,1.43
2022-09-20T09:49:25.017Z,1.67
2022-09-20T09:52:04.438Z,2.47
2022-09-20T09:54:36.428Z,2.63
2022-09-20T09:57:11.776Z,1.80
2022-09-20T09:59:57.562Z,1.63
2022-09-20T10:02:43.549Z,1.85
2022-09-20T10:05:30.963Z,1.38
2022-09-20T10:08:04.052Z,1.75
2022-09-20T10:10:45.813Z,2.15
2022-09-20T10:13:15.903Z,1.52
2022-09-20T10:15:50.926Z,1.65
2022-09-20T10:18:36.721Z,1.73
2022-09-20T10:21:07.745Z,1.45
2022-09-20T10:24:02.716Z,1.67
2022-09-20T10:26:39.236Z,1.50
2022-09-20T10:29:09.169Z,1.60
2022-09-20T10:31:40.531Z,1.60
2022-09-20T10:34:35.434Z,1.58
2022-09-20T10:37:02.518Z,1.55
2022-09-20T10:39:34.385Z,1.50
2022-09-20T10:42:39.037Z,1.48
2022-09-20T10:45:06.125Z,1.73
2022-09-20T10:47:47.763Z,1.70
2022-09-20T10:50:17.865Z,1.73
2022-09-20T10:52:54.242Z,2.63
2022-09-20T10:55:33.391Z,1.52
2022-09-20T10:58:01.424Z,1.20
2022-09-20T11:00:32.344Z,1.95
2022-09-20T11:03:05.522Z,2.30
2022-09-20T11:05:51.221Z,2.17
2022-09-20T11:08:23.080Z,2.13
2022-09-20T11:10:53.386Z,1.37
2022-09-20T11:13:41.991Z,1.70
2022-09-20T11:16:18.148Z,1.70
2022-09-20T11:19:08.329Z,1.47
2022-09-20T11:21:38.351Z,2.00
2022-09-20T11:24:24.077Z,2.23
2022-09-20T11:26:56.041Z,1.70
2022-09-20T11:29:42.279Z,1.70
2022-09-20T11:32:18.426Z,1.90
2022-09-20T11:34:52.579Z,1.67
2022-09-20T11:37:20.990Z,1.70
2022-09-20T11:39:55.517Z,1.73
2022-09-20T11:42:31.242Z,1.60
2022-09-20T11:44:58.402Z,1.70
2022-09-20T11:47:52.711Z,1.70
2022-09-20T11:50:14.578Z,1.80
2022-09-20T11:52:41.639Z,1.70
2022-09-20T11:55:14.886Z,1.77
2022-09-20T11:57:41.976Z,1.52
2022-09-20T12:00:10.227Z,1.42
2022-09-20T12:02:51.105Z,1.52
2022-09-20T12:05:27.189Z,1.70
2022-09-20T12:07:55.709Z,2.20
2022-09-20T12:10:27.519Z,1.40
2022-09-20T12:12:56.922Z,1.45
2022-09-20T12:15:24.032Z,1.23
2022-09-20T12:17:51.813Z,1.80
2022-09-20T12:20:42.432Z,1.52
2022-09-20T12:23:28.423Z,1.42
2022-09-20T12:26:06.235Z,1.35
2022-09-20T12:28:41.209Z,1.60
2022-09-20T12:31:20.665Z,1.67
2022-09-20T12:33:57.393Z,1.40
2022-09-20T12:36:24.900Z,1.40
2022-09-20T12:39:23.263Z,1.98
2022-09-20T12:41:51.549Z,1.50
2022-09-20T12:44:24.774Z,1.40
2022-09-20T12:46:54.246Z,1.15
2022-09-20T12:49:49.357Z,1.10
2022-09-20T12:52:42.645Z,1.33
2022-09-20T12:55:13.861Z,1.40
2022-09-20T12:57:41.302Z,1.50
2022-09-20T13:00:09.658Z,1.48
2022-09-20T13:02:47.381Z,1.60
2022-09-20T13:05:32.169Z,1.40
2022-09-20T13:08:18.229Z,1.30
2022-09-20T13:10:50.090Z,1.25
2022-09-20T13:13:29.168Z,1.30
2022-09-20T13:15:56.544Z,1.60
2022-09-20T13:18:25.069Z,1.58
2022-09-20T13:20:52.321Z,1.20
2022-09-20T13:23:20.880Z,1.60
2022-09-20T13:25:49.063Z,1.50
2022-09-20T13:28:40.277Z,1.38
2022-09-20T13:31:16.860Z,1.13
2022-09-20T13:33:43.944Z,1.85
2022-09-20T13:36:11.125Z,1.20
2022-09-20T13:38:38.290Z,1.53
2022-09-20T13:41:12.968Z,1.67
2022-09-20T13:43:44.316Z,1.70
2022-09-20T13:46:11.515Z,1.50
2022-09-20T13:48:38.992Z,1.37
2022-09-20T13:51:16.254Z,1.60
2022-09-20T13:53:44.850Z,1.80
2022-09-20T13:56:26.463Z,1.60
2022-09-20T13:58:54.175Z,1.50
2022-09-20T14:01:31.968Z,1.63
2022-09-20T14:04:05.944Z,1.50
2022-09-20T14:06:33.432Z,1.50
2022-09-20T14:09:05.954Z,1.60
2022-09-20T14:11:36.974Z,1.57
2022-09-20T14:14:05.664Z,1.30
2022-09-20T14:16:34.538Z,1.30
2022-09-20T14:19:03.017Z,1.40
2022-09-20T14:21:33.193Z,1.40
2022-09-20T14:24:04.874Z,1.27
2022-09-20T14:26:39.858Z,1.00
2022-09-20T14:29:25.499Z,1.20
2022-09-20T14:31:54.595Z,1.20
2022-09-20T14:34:22.117Z,1.07
2022-09-20T14:36:52.539Z,1.70
2022-09-20T14:39:19.842Z,1.80
2022-09-20T14:41:47.177Z,1.40
2022-09-20T14:44:24.512Z,1.10
2022-09-20T14:46:51.545Z,2.73
2022-09-20T14:49:22.969Z,2.10
2022-09-20T14:51:50.238Z,0.90
2022-09-20T14:54:30.470Z,1.33
2022-09-20T14:56:58.628Z,1.57
2022-09-20T14:59:27.171Z,0.97
2022-09-20T15:02:00.098Z,1.13
2022-09-20T15:04:28.340Z,1.90
2022-09-20T15:06:56.380Z,1.70
2022-09-20T15:09:23.561Z,1.30
2022-09-20T15:12:04.555Z,1.10
2022-09-20T15:14:36.522Z,1.47
2022-09-20T15:17:04.765Z,1.10
2022-09-20T15:19:31.887Z,1.10
2022-09-20T15:22:00.042Z,1.77
2022-09-20T15:24:27.487Z,1.70
2022-09-20T15:26:54.540Z,1.60
2022-09-20T15:29:21.951Z,1.50
2022-09-20T15:31:49.320Z,1.00
2022-09-20T15:34:16.593Z,2.80
2022-09-20T15:36:43.739Z,1.73
2022-09-20T15:39:10.850Z,2.07
2022-09-20T15:41:38.367Z,2.10
2022-09-20T15:44:06.503Z,2.77
2022-09-20T15:46:33.671Z,7.73
2022-09-20T15:49:02.682Z,6.17
2022-09-20T15:51:32.934Z,3.47
2022-09-20T15:54:01.573Z,3.10
2022-09-20T15:56:30.315Z,3.23
2022-09-20T15:59:01.612Z,3.30
2022-09-20T16:01:29.509Z,2.40
2022-09-20T16:03:56.720Z,1.23
2022-09-20T16:06:24.486Z,1.00
2022-09-20T16:08:52.040Z,1.10
2022-09-20T16:11:22.726Z,1.10
2022-09-20T16:13:54.438Z,1.07
2022-09-20T16:16:21.621Z,1.60
2022-09-20T16:19:08.012Z,1.60
2022-09-20T16:21:35.473Z,1.47
2022-09-20T16:24:02.696Z,1.70
2022-09-20T16:26:31.212Z,2.17
2022-09-20T16:28:58.385Z,2.10
2022-09-20T16:31:29.450Z,2.20
2022-09-20T16:33:56.703Z,1.60
2022-09-20T16:36:27.733Z,1.83
2022-09-20T16:38:58.557Z,1.30
2022-09-20T16:41:26.942Z,1.03
2022-09-20T16:43:54.443Z,1.40
2022-09-20T16:46:22.196Z,1.40
2022-09-20T16:48:54.871Z,1.90
2022-09-20T16:51:24.617Z,1.80
2022-09-20T16:53:55.618Z,1.70
2022-09-20T16:56:23.888Z,1.70
2022-09-20T16:58:52.029Z,1.83
2022-09-20T17:01:19.554Z,2.00
2022-09-20T17:03:47.133Z,1.67
2022-09-20T17:06:15.115Z,1.70
2022-09-20T17:08:43.682Z,1.93
2022-09-20T17:11:18.171Z,1.90
2022-09-20T17:13:47.123Z,1.70
2022-09-20T17:16:15.868Z,1.80
2022-09-20T17:18:43.758Z,1.37
2022-09-20T17:21:13.672Z,1.50
2022-09-20T17:23:41.578Z,1.30
2022-09-20T17:26:16.142Z,2.00
2022-09-20T17:28:46.759Z,2.47
2022-09-20T17:31:15.639Z,2.20
2022-09-20T17:33:43.093Z,1.83
2022-09-20T17:36:14.757Z,1.33
2022-09-20T17:38:42.258Z,1.70
2022-09-20T17:41:13.989Z,1.97
2022-09-20T17:43:41.797Z,2.80
2022-09-20T17:46:13.328Z,2.47
2022-09-20T17:48:40.924Z,2.30
2022-09-20T17:51:12.391Z,1.80
2022-09-20T17:53:39.784Z,1.90
2022-09-20T17:56:06.846Z,2.30
2022-09-20T17:58:35.488Z,2.57
2022-09-20T18:01:03.475Z,2.10
2022-09-20T18:03:34.439Z,1.70
2022-09-20T18:06:01.538Z,1.50
2022-09-20T18:08:28.667Z,1.60
2022-09-20T18:10:56.737Z,1.60
2022-09-20T18:13:24.135Z,1.53
2022-09-20T18:15:51.869Z,1.80
2022-09-20T18:18:20.083Z,1.23
2022-09-20T18:20:47.344Z,1.60
2022-09-20T18:23:14.405Z,2.00
2022-09-20T18:26:00.061Z,2.07
2022-09-20T18:28:27.162Z,2.40
2022-09-20T18:31:04.108Z,2.30
2022-09-20T18:33:31.673Z,2.10
2022-09-20T18:36:02.476Z,1.77
2022-09-20T18:38:30.378Z,1.63
2022-09-20T18:41:00.218Z,1.83
2022-09-20T18:43:28.374Z,3.20
2022-09-20T18:45:55.669Z,3.67
2022-09-20T18:48:23.057Z,3.30
2022-09-20T18:51:16.553Z,3.50
2022-09-20T18:53:43.665Z,5.40
2022-09-20T18:56:10.906Z,3.17
2022-09-20T18:58:39.898Z,2.30
2022-09-20T19:01:15.812Z,2.90
2022-09-20T19:03:54.844Z,3.07
2022-09-20T19:06:23.556Z,2.60
2022-09-20T19:08:55.860Z,3.07
2022-09-20T19:11:32.502Z,6.60
2022-09-20T19:14:00.329Z,9.73
2022-09-20T19:16:41.757Z,17.87
2022-09-20T19:19:08.904Z,14.53
2022-09-20T19:21:45.270Z,13.17
2022-09-20T19:24:30.938Z,11.73
2022-09-20T19:26:58.097Z,9.30
2022-09-20T19:29:26.890Z,4.80
2022-09-20T19:31:55.609Z,4.20
2022-09-20T19:34:27.366Z,3.10
2022-09-20T19:37:18.371Z,3.53
2022-09-20T19:39:51.552Z,6.07
2022-09-20T19:42:21.391Z,6.13
2022-09-20T19:44:49.326Z,5.10
2022-09-20T19:47:19.620Z,4.00
2022-09-20T19:49:54.189Z,3.17
2022-09-20T19:52:21.992Z,2.97
2022-09-20T19:54:50.054Z,4.20
2022-09-20T19:57:28.314Z,2.87
2022-09-20T19:59:57.143Z,2.37
2022-09-20T20:02:24.424Z,2.10
2022-09-20T20:04:51.677Z,2.00
2022-09-20T20:07:27.536Z,2.00
2022-09-20T20:09:57.621Z,1.90
2022-09-20T20:12:31.023Z,1.60
2022-09-20T20:15:00.893Z,1.70
2022-09-20T20:17:36.892Z,1.73
2022-09-20T20:20:06.733Z,1.70
2022-09-20T20:22:36.628Z,2.30
2022-09-20T20:25:03.938Z,2.00
2022-09-20T20:27:32.481Z,2.80
2022-09-20T20:29:59.749Z,2.80
2022-09-20T20:32:27.408Z,3.00
2022-09-20T20:34:54.482Z,2.90
2022-09-20T20:37:23.944Z,3.73
2022-09-20T20:39:52.107Z,3.50
2022-09-20T20:42:19.587Z,3.50
2022-09-20T20:44:47.462Z,2.83
2022-09-20T20:47:14.590Z,2.93
2022-09-20T20:49:42.303Z,3.00
2022-09-20T20:52:09.635Z,3.00
2022-09-20T20:54:37.198Z,3.00
2022-09-20T20:57:04.345Z,3.10
2022-09-20T20:59:31.431Z,3.10
2022-09-20T21:01:58.561Z,3.20
2022-09-20T21:04:27.440Z,2.90
2022-09-20T21:06:55.009Z,3.23
2022-09-20T21:09:22.108Z,3.17
2022-09-20T21:11:49.191Z,3.60
2022-09-20T21:14:16.474Z,3.30
2022-09-20T21:16:44.040Z,3.50
2022-09-20T21:19:14.724Z,3.87
2022-09-20T21:21:43.008Z,3.30
2022-09-20T21:24:11.455Z,3.50
2022-09-20T21:26:39.087Z,3.90
2022-09-20T21:29:07.307Z,3.30
2022-09-20T21:31:35.937Z,3.70
2022-09-20T21:34:05.033Z,4.30
2022-09-20T21:36:32.691Z,4.97
2022-09-20T21:38:59.869Z,4.37
2022-09-20T21:41:29.341Z,4.00
2022-09-20T21:43:57.105Z,4.47
2022-09-20T21:46:28.814Z,4.53
2022-09-20T21:48:57.056Z,4.20
2022-09-20T21:51:25.013Z,4.53
2022-09-20T21:53:59.400Z,4.20
2022-09-20T21:56:27.689Z,4.10
2022-09-20T21:58:55.295Z,4.80
2022-09-20T22:01:23.739Z,4.10
2022-09-20T22:03:52.116Z,4.37
2022-09-20T22:06:20.192Z,4.10
2022-09-20T22:09:07.682Z,4.30
2022-09-20T22:11:41.974Z,3.87
2022-09-20T22:14:09.843Z,4.30
2022-09-20T22:16:38.055Z,3.80
2022-09-20T22:19:05.752Z,4.00
2022-09-20T22:21:40.220Z,4.40
2022-09-20T22:24:08.745Z,4.63
2022-09-20T22:26:36.913Z,4.50
2022-09-20T22:29:04.405Z,4.70
2022-09-20T22:31:32.593Z,4.87
2022-09-20T22:34:01.024Z,4.70
2022-09-20T22:36:29.422Z,4.47
2022-09-20T22:38:56.739Z,5.30
2022-09-20T22:41:24.489Z,4.80
2022-09-20T22:43:51.969Z,5.10
2022-09-20T22:46:20.361Z,5.13
2022-09-20T22:48:48.238Z,5.40
2022-09-20T22:51:16.710Z,5.30
2022-09-20T22:53:44.043Z,6.00
2022-09-20T22:56:12.592Z,5.80
2022-09-20T22:58:49.792Z,5.70
2022-09-20T23:01:16.907Z,5.77
2022-09-20T23:03:45.792Z,6.63
2022-09-20T23:06:20.971Z,7.03
2022-09-20T23:08:51.591Z,7.50
2022-09-20T23:11:19.026Z,6.87
2022-09-20T23:13:46.633Z,6.97
2022-09-20T23:16:21.249Z,6.70
2022-09-20T23:18:49.742Z,6.77
2022-09-20T23:21:17.202Z,6.40
2022-09-20T23:23:44.727Z,6.87
2022-09-20T23:26:17.026Z,7.00
2022-09-20T23:28:45.277Z,6.70
2022-09-20T23:31:13.849Z,6.40
2022-09-20T23:33:44.787Z,7.00
2022-09-20T23:36:13.796Z,7.00
2022-09-20T23:38:41.078Z,7.17
2022-09-20T23:41:09.576Z,7.03
2022-09-20T23:43:37.292Z,7.33
2022-09-20T23:46:05.262Z,7.07
2022-09-20T23:48:32.611Z,6.93
2022-09-20T23:50:59.801Z,7.03
2022-09-20T23:53:27.141Z,7.07
2022-09-20T23:55:54.306Z,7.10
2022-09-20T23:58:21.486Z,7.40
